createdAt,value
2018-09-19T00:00:04.918Z,0.00
2018-09-19T00:01:04.925Z,0.00
2018-09-19T00:02:04.929Z,0.00
2018-09-19T00:03:04.912Z,0.00
2018-09-19T00:04:04.915Z,0.00
2018-09-19T00:05:04.924Z,0.00
2018-09-19T00:06:04.906Z,0.00
2018-09-19T00:07:04.899Z,0.00
2018-09-19T00:08:04.901Z,0.00
2018-09-19T00:09:04.957Z,0.00
2018-09-19T00:10:04.904Z,0.00
2018-09-19T00:11:04.893Z,0.00
2018-09-19T00:12:04.884Z,0.00
2018-09-19T00:13:04.883Z,0.00
2018-09-19T00:14:04.889Z,0.00
2018-09-19T00:15:04.881Z,0.00
2018-09-19T00:16:04.878Z,0.00
2018-09-19T00:17:04.908Z,0.00
2018-09-19T00:18:04.912Z,0.00
2018-09-19T00:19:04.867Z,0.00
2018-09-19T00:20:04.886Z,0.00
2018-09-19T00:21:04.874Z,0.00
2018-09-19T00:22:04.872Z,0.00
2018-09-19T00:23:04.860Z,0.00
2018-09-19T00:24:04.866Z,0.00
2018-09-19T00:25:04.865Z,0.00
2018-09-19T00:26:04.849Z,0.00
2018-09-19T00:27:04.845Z,0.00
2018-09-19T00:28:04.843Z,0.00
2018-09-19T00:29:04.838Z,0.00
2018-09-19T00:30:04.837Z,0.00
2018-09-19T00:31:04.831Z,0.00
2018-09-19T00:32:04.902Z,0.00
2018-09-19T00:33:04.830Z,0.00
2018-09-19T00:34:04.822Z,0.00
2018-09-19T00:35:04.821Z,0.00
2018-09-19T00:36:04.818Z,0.00
2018-09-19T00:37:04.815Z,0.00
2018-09-19T00:38:04.810Z,0.00
2018-09-19T00:39:04.810Z,0.00
2018-09-19T00:40:04.804Z,0.00
2018-09-19T00:41:04.805Z,0.00
2018-09-19T00:42:04.803Z,0.00
2018-09-19T00:43:04.797Z,0.00
2018-09-19T00:44:04.792Z,0.00
2018-09-19T00:45:04.787Z,0.00
2018-09-19T00:46:04.790Z,0.00
2018-09-19T00:47:04.817Z,0.00
2018-09-19T00:48:04.782Z,0.00
2018-09-19T00:49:04.781Z,0.00
2018-09-19T00:50:04.780Z,0.00
2018-09-19T00:51:04.771Z,0.00
2018-09-19T00:52:04.765Z,0.00
2018-09-19T00:53:04.771Z,0.00
2018-09-19T00:54:04.766Z,0.00
2018-09-19T00:55:04.757Z,0.00
2018-09-19T00:56:04.753Z,0.00
2018-09-19T00:57:04.798Z,0.00
2018-09-19T00:58:04.750Z,0.00
2018-09-19T00:59:04.742Z,0.00
2018-09-19T01:00:04.770Z,0.00
2018-09-19T01:01:04.744Z,0.00
2018-09-19T01:02:04.758Z,0.00
2018-09-19T01:03:04.724Z,0.00
2018-09-19T01:04:04.737Z,0.00
2018-09-19T01:05:04.722Z,0.00
2018-09-19T01:06:04.718Z,0.00
2018-09-19T01:07:04.720Z,0.00
2018-09-19T01:08:04.724Z,0.00
2018-09-19T01:09:04.745Z,0.00
2018-09-19T01:10:04.711Z,0.00
2018-09-19T01:11:04.703Z,0.00
2018-09-19T01:12:04.708Z,0.00
2018-09-19T01:13:04.696Z,0.00
2018-09-19T01:14:04.693Z,0.00
2018-09-19T01:15:04.690Z,0.00
2018-09-19T01:16:04.684Z,0.00
2018-09-19T01:17:04.715Z,0.00
2018-09-19T01:18:04.684Z,0.00
2018-09-19T01:19:04.679Z,0.00
2018-09-19T01:20:04.674Z,0.00
2018-09-19T01:21:04.669Z,0.00
2018-09-19T01:22:04.666Z,0.00
2018-09-19T01:23:04.661Z,0.00
2018-09-19T01:24:04.667Z,0.00
2018-09-19T01:25:04.655Z,0.00
2018-09-19T01:26:04.653Z,0.00
2018-09-19T01:27:04.654Z,0.00
2018-09-19T01:28:04.644Z,0.00
2018-09-19T01:29:04.640Z,0.00
2018-09-19T01:30:04.640Z,0.00
2018-09-19T02:06:36.260Z,0.00
2018-09-19T02:07:36.211Z,0.00
2018-09-19T02:09:29.135Z,0.00
2018-09-19T02:10:29.110Z,0.00
2018-09-19T02:12:22.058Z,0.00
2018-09-19T02:13:22.031Z,0.00
2018-09-19T02:14:22.025Z,0.00
2018-09-19T02:15:22.017Z,0.00
2018-09-19T02:16:22.014Z,0.00
2018-09-19T02:17:22.019Z,0.00
2018-09-19T02:18:22.006Z,0.00
2018-09-19T02:19:22.002Z,0.00
2018-09-19T02:20:21.992Z,0.00
2018-09-19T02:21:21.987Z,0.00
2018-09-19T02:22:21.983Z,0.00
2018-09-19T02:23:21.985Z,0.00
2018-09-19T02:24:21.982Z,0.00
2018-09-19T02:25:21.977Z,0.00
2018-09-19T02:26:21.968Z,0.00
2018-09-19T02:27:21.969Z,0.00
2018-09-19T02:28:21.970Z,0.00
2018-09-19T02:29:21.953Z,0.00
2018-09-19T02:30:21.962Z,0.00
2018-09-19T02:31:21.947Z,0.00
2018-09-19T02:32:21.949Z,0.00
2018-09-19T02:33:21.942Z,0.00
2018-09-19T02:34:21.943Z,0.00
2018-09-19T02:35:21.938Z,0.00
2018-09-19T02:36:21.932Z,0.00
2018-09-19T02:37:21.925Z,0.00
2018-09-19T02:38:21.927Z,0.00
2018-09-19T02:39:21.922Z,0.00
2018-09-19T02:40:21.913Z,0.00
2018-09-19T02:41:21.927Z,0.00
2018-09-19T02:42:21.912Z,0.00
2018-09-19T02:43:21.903Z,0.00
2018-09-19T02:44:21.905Z,0.00
2018-09-19T02:45:21.898Z,0.00
2018-09-19T02:46:21.900Z,0.00
2018-09-19T02:47:21.893Z,0.00
2018-09-19T02:48:21.914Z,0.00
2018-09-19T02:49:21.894Z,0.00
2018-09-19T02:50:21.883Z,0.00
2018-09-19T02:51:21.876Z,0.00
2018-09-19T02:52:21.881Z,0.00
2018-09-19T02:53:21.900Z,0.00
2018-09-19T02:54:21.869Z,0.00
2018-09-19T02:55:21.861Z,0.00
2018-09-19T02:56:21.860Z,0.00
2018-09-19T02:57:21.860Z,0.00
2018-09-19T02:58:21.879Z,0.00
2018-09-19T02:59:21.849Z,0.00
2018-09-19T03:00:21.850Z,0.00
2018-09-19T03:01:21.891Z,0.00
2018-09-19T03:02:21.840Z,0.00
2018-09-19T03:03:21.841Z,0.00
2018-09-19T03:04:21.831Z,0.00
2018-09-19T03:05:21.833Z,0.00
2018-09-19T03:06:21.832Z,0.00
2018-09-19T03:07:21.825Z,0.00
2018-09-19T03:08:21.817Z,0.00
2018-09-19T03:09:21.816Z,0.00
2018-09-19T03:10:21.814Z,0.00
2018-09-19T03:11:21.807Z,0.00
2018-09-19T03:12:21.806Z,0.00
2018-09-19T03:13:21.802Z,0.00
2018-09-19T03:14:21.802Z,0.00
2018-09-19T03:15:21.793Z,0.00
2018-09-19T03:16:21.790Z,0.00
2018-09-19T03:17:21.877Z,0.00
2018-09-19T03:18:21.783Z,0.00
2018-09-19T03:19:21.780Z,0.00
2018-09-19T03:20:21.780Z,0.00
2018-09-19T03:21:21.776Z,0.00
2018-09-19T03:22:21.767Z,0.00
2018-09-19T03:23:21.787Z,0.00
2018-09-19T03:24:21.771Z,0.00
2018-09-19T03:25:21.803Z,0.00
2018-09-19T03:26:21.761Z,0.00
2018-09-19T03:27:21.750Z,0.00
2018-09-19T03:28:21.749Z,0.00
2018-09-19T03:29:21.747Z,0.00
2018-09-19T03:30:21.743Z,0.00
2018-09-19T03:31:21.747Z,0.00
2018-09-19T03:32:21.741Z,0.00
2018-09-19T03:33:21.730Z,0.00
2018-09-19T03:34:21.731Z,0.00
2018-09-19T03:35:21.740Z,0.00
2018-09-19T03:36:21.717Z,0.00
2018-09-19T03:37:21.719Z,0.00
2018-09-19T03:38:21.714Z,0.00
2018-09-19T03:39:21.732Z,0.00
2018-09-19T03:40:21.705Z,0.00
2018-09-19T03:41:21.708Z,0.00
2018-09-19T03:42:21.699Z,0.00
2018-09-19T03:43:21.698Z,0.00
2018-09-19T03:44:21.693Z,0.00
2018-09-19T03:45:21.687Z,0.00
2018-09-19T03:46:21.685Z,0.00
2018-09-19T03:47:21.680Z,0.00
2018-09-19T03:48:21.677Z,0.00
2018-09-19T03:49:21.674Z,0.00
2018-09-19T03:50:21.670Z,0.00
2018-09-19T03:51:21.670Z,0.00
2018-09-19T03:52:21.668Z,0.00
2018-09-19T03:53:21.661Z,0.00
2018-09-19T03:54:21.700Z,0.00
2018-09-19T03:55:21.652Z,0.00
2018-09-19T03:56:21.649Z,0.00
2018-09-19T03:57:21.641Z,0.00
2018-09-19T03:58:21.671Z,0.00
2018-09-19T03:59:21.639Z,0.00
2018-09-19T04:00:21.633Z,0.00
2018-09-19T04:01:21.631Z,0.00
2018-09-19T04:02:21.626Z,0.00
2018-09-19T04:03:21.627Z,0.00
2018-09-19T04:04:21.619Z,0.00
2018-09-19T04:05:21.618Z,0.00
2018-09-19T04:06:21.635Z,0.00
2018-09-19T04:07:21.612Z,0.00
2018-09-19T04:08:21.604Z,0.00
2018-09-19T04:09:21.609Z,0.00
2018-09-19T04:10:21.603Z,0.00
2018-09-19T04:11:21.600Z,0.00
2018-09-19T04:12:21.649Z,0.00
2018-09-19T04:13:21.588Z,0.00
2018-09-19T04:14:21.586Z,0.00
2018-09-19T04:15:21.581Z,0.00
2018-09-19T04:16:21.598Z,0.00
2018-09-19T04:17:21.577Z,0.00
2018-09-19T04:18:21.574Z,0.00
2018-09-19T04:19:21.565Z,0.00
2018-09-19T04:20:22.507Z,0.00
2018-09-19T04:21:21.601Z,0.00
2018-09-19T04:22:21.619Z,0.00
2018-09-19T04:23:21.590Z,0.00
2018-09-19T04:24:21.561Z,0.00
2018-09-19T04:25:21.581Z,0.00
2018-09-19T04:26:21.583Z,0.00
2018-09-19T04:27:21.549Z,0.00
2018-09-19T04:28:21.548Z,0.00
2018-09-19T04:29:21.553Z,0.00
2018-09-19T04:30:21.566Z,0.00
2018-09-19T04:31:21.571Z,0.00
2018-09-19T04:32:21.637Z,4.00
2018-09-19T04:33:21.524Z,0.00
2018-09-19T04:34:21.541Z,0.00
2018-09-19T04:35:21.517Z,4.00
2018-09-19T04:36:21.529Z,4.00
2018-09-19T04:37:21.520Z,4.00
2018-09-19T04:38:21.514Z,4.00
2018-09-19T04:39:21.528Z,8.00
2018-09-19T04:40:21.532Z,8.00
2018-09-19T04:41:21.538Z,12.00
2018-09-19T04:42:21.558Z,12.00
2018-09-19T04:43:21.491Z,16.00
2018-09-19T04:44:21.494Z,20.00
2018-09-19T04:45:21.532Z,24.00
2018-09-19T04:46:21.518Z,28.00
2018-09-19T04:47:21.478Z,32.00
2018-09-19T04:48:21.483Z,36.00
2018-09-19T04:49:22.019Z,48.00
2018-09-19T04:50:21.491Z,56.00
2018-09-19T04:51:22.173Z,60.00
2018-09-19T04:52:21.510Z,72.00
2018-09-19T04:53:21.454Z,88.00
2018-09-19T04:54:21.459Z,100.00
2018-09-19T04:55:21.444Z,116.00
2018-09-19T04:56:21.449Z,132.00
2018-09-19T04:57:21.451Z,152.00
2018-09-19T04:58:21.450Z,176.00
2018-09-19T04:59:21.443Z,196.00
2018-09-19T05:00:21.458Z,224.00
2018-09-19T05:01:21.425Z,248.00
2018-09-19T05:02:21.476Z,276.00
2018-09-19T05:03:21.417Z,304.00
2018-09-19T05:04:21.406Z,340.00
2018-09-19T05:05:21.402Z,372.00
2018-09-19T05:06:21.395Z,412.00
2018-09-19T05:07:21.466Z,444.00
2018-09-19T05:08:21.411Z,484.00
2018-09-19T05:09:21.380Z,528.00
2018-09-19T05:10:21.399Z,568.00
2018-09-19T05:11:21.448Z,616.00
2018-09-19T05:12:21.382Z,660.00
2018-09-19T05:13:21.371Z,712.00
2018-09-19T05:14:21.367Z,760.00
2018-09-19T05:15:21.356Z,816.00
2018-09-19T05:16:21.374Z,872.00
2018-09-19T05:17:21.354Z,928.00
2018-09-19T05:18:21.359Z,992.00
2018-09-19T05:19:21.347Z,1048.00
2018-09-19T05:20:21.355Z,1116.00
2018-09-19T05:21:21.359Z,1176.00
2018-09-19T05:22:21.345Z,1244.00
2018-09-19T05:23:21.337Z,1308.00
2018-09-19T05:24:21.333Z,1380.00
2018-09-19T05:25:21.333Z,1452.00
2018-09-19T05:26:21.324Z,1524.00
2018-09-19T05:27:21.321Z,1600.00
2018-09-19T05:28:21.321Z,1664.00
2018-09-19T05:29:21.314Z,1740.00
2018-09-19T05:30:21.315Z,1808.00
2018-09-19T05:31:21.307Z,1876.00
2018-09-19T05:32:21.296Z,1948.00
2018-09-19T05:33:21.297Z,2020.00
2018-09-19T05:34:21.301Z,2092.00
2018-09-19T05:35:21.287Z,2168.00
2018-09-19T05:36:21.287Z,2252.00
2018-09-19T05:37:21.286Z,2336.00
2018-09-19T05:38:21.280Z,2416.00
2018-09-19T05:39:21.281Z,2492.00
2018-09-19T05:40:21.276Z,2572.00
2018-09-19T05:41:21.272Z,2648.00
2018-09-19T05:42:21.286Z,2724.00
2018-09-19T05:43:21.266Z,2796.00
2018-09-19T05:44:21.264Z,2860.00
2018-09-19T05:45:21.262Z,2920.00
2018-09-19T05:46:21.271Z,2972.00
2018-09-19T05:47:21.252Z,3028.00
2018-09-19T05:48:21.249Z,3064.00
2018-09-19T05:49:21.250Z,3192.00
2018-09-19T05:50:21.237Z,3284.00
2018-09-19T05:51:21.237Z,3368.00
2018-09-19T05:52:21.238Z,3460.00
2018-09-19T05:53:21.228Z,3556.00
2018-09-19T05:54:21.264Z,3648.00
2018-09-19T05:55:21.238Z,3740.00
2018-09-19T05:56:21.225Z,3832.00
2018-09-19T05:57:21.249Z,3936.00
2018-09-19T05:58:21.214Z,4052.00
2018-09-19T05:59:21.238Z,4160.00
2018-09-19T06:00:21.213Z,4268.00
2018-09-19T06:01:21.204Z,4368.00
2018-09-19T06:02:21.253Z,4468.00
2018-09-19T06:03:21.237Z,4572.00
2018-09-19T06:04:21.202Z,4680.00
2018-09-19T06:05:21.195Z,4788.00
2018-09-19T06:06:21.191Z,4924.00
2018-09-19T06:07:21.194Z,5100.00
2018-09-19T06:08:21.197Z,5300.00
2018-09-19T06:09:21.195Z,5528.00
2018-09-19T06:10:21.213Z,5756.00
2018-09-19T06:11:21.176Z,5952.00
2018-09-19T06:12:21.170Z,6128.00
2018-09-19T06:13:21.184Z,6276.00
2018-09-19T06:14:21.169Z,6448.00
2018-09-19T06:15:21.171Z,6668.00
2018-09-19T06:16:21.164Z,7044.00
2018-09-19T06:17:21.161Z,7604.00
2018-09-19T06:18:21.164Z,8236.00
2018-09-19T06:19:21.158Z,8780.00
2018-09-19T06:20:21.155Z,9124.00
2018-09-19T06:21:21.155Z,9340.00
2018-09-19T06:22:21.154Z,9464.00
2018-09-19T06:23:21.160Z,9568.00
2018-09-19T06:24:21.150Z,9720.00
2018-09-19T06:25:21.161Z,9944.00
2018-09-19T06:26:21.148Z,10136.00
2018-09-19T06:27:21.158Z,10336.00
2018-09-19T06:28:21.145Z,11024.00
2018-09-19T06:29:21.139Z,12156.00
2018-09-19T06:30:21.142Z,13504.00
2018-09-19T06:31:21.141Z,14368.00
2018-09-19T06:32:21.154Z,14848.00
2018-09-19T06:33:21.153Z,15136.00
2018-09-19T06:34:21.139Z,15072.00
2018-09-19T06:35:21.136Z,14496.00
2018-09-19T06:36:21.140Z,11272.00
2018-09-19T06:37:21.137Z,8348.00
2018-09-19T06:38:21.159Z,8340.00
2018-09-19T06:39:21.239Z,8364.00
2018-09-19T06:40:21.152Z,8488.00
2018-09-19T06:41:21.153Z,8596.00
2018-09-19T06:42:21.146Z,8744.00
2018-09-19T06:43:21.148Z,8816.00
2018-09-19T06:44:21.147Z,9296.00
2018-09-19T06:45:21.149Z,8944.00
2018-09-19T06:46:21.150Z,8956.00
2018-09-19T06:47:21.149Z,9016.00
2018-09-19T06:48:21.148Z,9224.00
2018-09-19T06:49:21.152Z,9568.00
2018-09-19T06:50:21.148Z,13496.00
2018-09-19T06:51:21.154Z,15520.00
2018-09-19T06:52:21.170Z,11684.00
2018-09-19T06:53:21.152Z,15168.00
2018-09-19T06:54:21.153Z,13752.00
2018-09-19T06:55:21.155Z,16736.00
2018-09-19T06:56:21.154Z,17376.00
2018-09-19T06:57:21.155Z,17888.00
2018-09-19T06:58:21.165Z,18048.00
2018-09-19T06:59:21.164Z,18240.00
2018-09-19T07:00:21.165Z,17696.00
2018-09-19T07:01:21.166Z,15520.00
2018-09-19T07:02:21.197Z,15872.00
2018-09-19T07:03:23.068Z,12316.00
2018-09-19T07:04:21.250Z,11620.00
2018-09-19T07:05:21.273Z,16192.00
2018-09-19T07:06:21.197Z,15648.00
2018-09-19T07:07:21.189Z,15872.00
2018-09-19T07:08:21.193Z,15616.00
2018-09-19T07:09:21.202Z,15168.00
2018-09-19T07:10:21.253Z,9572.00
2018-09-19T07:11:21.206Z,15424.00
2018-09-19T07:12:21.212Z,15232.00
2018-09-19T07:13:21.213Z,15328.00
2018-09-19T07:14:21.220Z,15328.00
2018-09-19T07:15:21.223Z,15424.00
2018-09-19T07:16:21.251Z,15488.00
2018-09-19T07:17:21.238Z,15680.00
2018-09-19T07:18:21.241Z,15552.00
2018-09-19T07:19:21.245Z,15776.00
2018-09-19T07:20:21.251Z,15808.00
2018-09-19T07:21:21.261Z,15872.00
2018-09-19T07:22:21.263Z,15872.00
2018-09-19T07:23:21.290Z,15744.00
2018-09-19T07:24:21.271Z,15680.00
2018-09-19T07:25:21.346Z,15712.00
2018-09-19T07:26:21.285Z,15744.00
2018-09-19T07:27:21.297Z,15872.00
2018-09-19T07:28:21.300Z,15744.00
2018-09-19T07:29:21.319Z,15904.00
2018-09-19T07:30:21.315Z,15936.00
2018-09-19T07:31:21.330Z,16000.00
2018-09-19T07:32:21.326Z,16000.00
2018-09-19T07:33:21.341Z,16064.00
2018-09-19T07:34:21.351Z,16224.00
2018-09-19T07:35:21.348Z,16096.00
2018-09-19T07:36:21.354Z,16160.00
2018-09-19T07:37:21.366Z,16192.00
2018-09-19T07:38:21.370Z,16288.00
2018-09-19T07:39:21.375Z,16288.00
2018-09-19T07:40:21.422Z,16320.00
2018-09-19T07:41:21.397Z,16480.00
2018-09-19T07:42:21.400Z,16448.00
2018-09-19T07:43:21.415Z,16416.00
2018-09-19T07:44:21.423Z,16608.00
2018-09-19T07:45:21.430Z,16672.00
2018-09-19T07:46:21.479Z,16672.00
2018-09-19T07:47:21.447Z,16544.00
2018-09-19T07:48:21.451Z,16544.00
2018-09-19T07:49:21.454Z,16608.00
2018-09-19T07:50:21.467Z,16576.00
2018-09-19T07:51:21.481Z,16672.00
2018-09-19T07:52:21.485Z,16832.00
2018-09-19T07:53:21.496Z,16928.00
2018-09-19T07:54:21.502Z,16832.00
2018-09-19T07:55:21.548Z,16768.00
2018-09-19T07:56:21.522Z,16768.00
2018-09-19T07:57:21.536Z,16672.00
2018-09-19T07:58:21.542Z,16736.00
2018-09-19T07:59:21.549Z,16768.00
2018-09-19T08:00:21.585Z,16896.00
2018-09-19T08:01:21.631Z,16864.00
2018-09-19T08:02:21.580Z,16928.00
2018-09-19T08:03:21.618Z,16960.00
2018-09-19T08:04:21.597Z,17088.00
2018-09-19T08:05:21.607Z,16992.00
2018-09-19T08:06:21.620Z,16896.00
2018-09-19T08:07:21.626Z,16960.00
2018-09-19T08:08:21.648Z,16992.00
2018-09-19T08:09:21.648Z,17024.00
2018-09-19T08:10:21.661Z,17056.00
2018-09-19T08:11:21.674Z,17088.00
2018-09-19T08:12:21.673Z,17152.00
2018-09-19T08:13:21.691Z,17152.00
2018-09-19T08:14:21.698Z,17216.00
2018-09-19T08:15:21.710Z,17216.00
2018-09-19T08:16:21.722Z,17184.00
2018-09-19T08:17:21.731Z,17152.00
2018-09-19T08:18:21.744Z,17120.00
2018-09-19T08:19:21.753Z,17216.00
2018-09-19T08:20:21.768Z,17216.00
2018-09-19T08:21:21.775Z,17216.00
2018-09-19T08:22:21.782Z,17248.00
2018-09-19T08:23:21.802Z,17376.00
2018-09-19T08:24:21.810Z,17280.00
2018-09-19T08:25:21.826Z,17248.00
2018-09-19T08:26:21.835Z,17248.00
2018-09-19T08:27:21.852Z,17280.00
2018-09-19T08:28:21.862Z,17312.00
2018-09-19T08:29:21.871Z,17344.00
2018-09-19T08:30:21.887Z,17344.00
2018-09-19T08:31:21.889Z,17344.00
2018-09-19T08:32:21.899Z,17312.00
2018-09-19T08:33:21.915Z,17216.00
2018-09-19T08:34:21.929Z,17280.00
2018-09-19T08:35:21.945Z,17344.00
2018-09-19T08:36:21.953Z,17376.00
2018-09-19T08:37:21.963Z,17376.00
2018-09-19T08:38:21.977Z,17376.00
2018-09-19T08:39:21.986Z,17408.00
2018-09-19T08:40:22.002Z,17408.00
2018-09-19T08:41:22.006Z,17312.00
2018-09-19T08:42:22.017Z,17408.00
2018-09-19T08:43:22.037Z,17440.00
2018-09-19T08:44:22.049Z,17504.00
2018-09-19T08:45:22.058Z,17536.00
2018-09-19T08:46:22.075Z,17504.00
2018-09-19T08:47:22.097Z,17600.00
2018-09-19T08:48:22.121Z,17568.00
2018-09-19T08:49:22.107Z,17536.00
2018-09-19T08:50:22.179Z,17504.00
2018-09-19T08:51:22.137Z,17440.00
2018-09-19T08:52:22.146Z,17504.00
2018-09-19T08:53:22.162Z,17536.00
2018-09-19T08:54:22.173Z,17600.00
2018-09-19T08:55:22.209Z,17632.00
2018-09-19T08:56:22.198Z,17536.00
2018-09-19T08:57:22.218Z,17568.00
2018-09-19T08:58:22.220Z,17600.00
2018-09-19T08:59:22.264Z,17536.00
2018-09-19T09:00:22.248Z,17472.00
2018-09-19T09:01:22.264Z,17504.00
2018-09-19T09:02:22.273Z,17568.00
2018-09-19T09:03:22.284Z,17600.00
2018-09-19T09:04:22.312Z,17536.00
2018-09-19T09:05:22.389Z,17600.00
2018-09-19T09:06:22.325Z,17568.00
2018-09-19T09:07:22.339Z,17504.00
2018-09-19T09:08:22.353Z,17504.00
2018-09-19T09:09:22.364Z,17600.00
2018-09-19T09:10:22.369Z,17632.00
2018-09-19T09:11:22.391Z,17600.00
2018-09-19T09:12:22.445Z,17600.00
2018-09-19T09:13:22.413Z,17472.00
2018-09-19T09:14:22.446Z,17472.00
2018-09-19T09:15:22.445Z,17440.00
2018-09-19T09:16:22.459Z,17504.00
2018-09-19T09:17:22.482Z,17600.00
2018-09-19T09:18:22.484Z,17600.00
2018-09-19T09:19:22.495Z,17600.00
2018-09-19T09:20:22.508Z,17600.00
2018-09-19T09:21:22.528Z,17536.00
2018-09-19T09:22:22.535Z,17632.00
2018-09-19T09:23:22.549Z,17568.00
2018-09-19T09:24:22.565Z,17472.00
2018-09-19T09:25:22.576Z,17408.00
2018-09-19T09:26:22.593Z,17408.00
2018-09-19T09:27:22.666Z,17504.00
2018-09-19T09:28:22.617Z,17504.00
2018-09-19T09:29:22.631Z,17600.00
2018-09-19T09:30:22.651Z,17600.00
2018-09-19T09:31:22.657Z,17664.00
2018-09-19T09:32:22.662Z,17696.00
2018-09-19T09:33:22.684Z,17568.00
2018-09-19T09:34:22.751Z,17504.00
2018-09-19T09:35:22.732Z,17440.00
2018-09-19T09:36:22.729Z,17376.00
2018-09-19T09:37:22.750Z,17408.00
2018-09-19T09:38:22.775Z,17568.00
2018-09-19T09:39:22.767Z,17536.00
2018-09-19T09:40:22.840Z,17440.00
2018-09-19T09:41:22.798Z,17440.00
2018-09-19T09:42:22.808Z,17376.00
2018-09-19T09:43:22.879Z,17440.00
2018-09-19T09:44:22.841Z,17600.00
2018-09-19T09:45:22.851Z,17696.00
2018-09-19T09:46:22.865Z,17728.00
2018-09-19T09:47:22.878Z,17568.00
2018-09-19T09:48:22.894Z,17536.00
2018-09-19T09:49:22.906Z,17600.00
2018-09-19T09:50:22.971Z,17600.00
2018-09-19T09:51:22.967Z,17600.00
2018-09-19T09:52:22.958Z,17600.00
2018-09-19T09:53:23.015Z,17504.00
2018-09-19T09:54:22.986Z,17472.00
2018-09-19T09:55:22.997Z,17728.00
2018-09-19T09:56:23.009Z,17856.00
2018-09-19T09:57:23.026Z,17792.00
2018-09-19T09:58:23.076Z,17888.00
2018-09-19T09:59:23.121Z,17792.00
2018-09-19T10:00:23.152Z,17728.00
2018-09-19T10:01:23.076Z,17664.00
2018-09-19T10:02:23.099Z,17600.00
2018-09-19T10:03:23.166Z,17600.00
2018-09-19T10:04:23.127Z,17632.00
2018-09-19T10:05:23.137Z,17536.00
2018-09-19T10:06:23.202Z,17536.00
2018-09-19T10:07:23.168Z,17536.00
2018-09-19T10:08:23.176Z,17536.00
2018-09-19T10:09:23.193Z,17504.00
2018-09-19T10:10:23.213Z,17440.00
2018-09-19T10:11:23.223Z,17408.00
2018-09-19T10:12:23.235Z,17408.00
2018-09-19T10:13:23.252Z,17568.00
2018-09-19T10:14:23.265Z,17536.00
2018-09-19T10:15:23.288Z,17440.00
2018-09-19T10:16:23.298Z,17632.00
2018-09-19T10:17:23.310Z,17664.00
2018-09-19T10:18:23.317Z,17568.00
2018-09-19T10:19:23.342Z,17600.00
2018-09-19T10:20:23.356Z,17504.00
2018-09-19T10:21:23.362Z,17568.00
2018-09-19T10:22:23.384Z,17696.00
2018-09-19T10:23:23.390Z,17632.00
2018-09-19T10:24:23.406Z,17792.00
2018-09-19T10:25:23.422Z,17728.00
2018-09-19T10:26:23.440Z,17632.00
2018-09-19T10:27:23.450Z,17664.00
2018-09-19T10:28:23.472Z,17696.00
2018-09-19T10:29:23.509Z,17760.00
2018-09-19T10:30:23.496Z,17504.00
2018-09-19T10:31:23.504Z,17504.00
2018-09-19T10:32:23.517Z,17632.00
2018-09-19T10:33:23.536Z,17600.00
2018-09-19T10:34:23.546Z,17464.00
2018-09-19T10:35:23.636Z,17388.00
2018-09-19T10:36:23.585Z,17664.00
2018-09-19T10:37:23.629Z,17632.00
2018-09-19T10:38:23.610Z,17424.00
2018-09-19T10:39:23.626Z,17352.00
2018-09-19T10:40:23.636Z,17392.00
2018-09-19T10:41:23.659Z,17420.00
2018-09-19T10:42:23.664Z,17316.00
2018-09-19T10:43:23.682Z,17392.00
2018-09-19T10:44:23.700Z,17352.00
2018-09-19T10:45:23.702Z,17216.00
2018-09-19T10:46:23.721Z,17048.00
2018-09-19T10:47:23.735Z,17068.00
2018-09-19T10:48:23.752Z,17060.00
2018-09-19T10:49:23.796Z,16996.00
2018-09-19T10:50:23.782Z,16916.00
2018-09-19T10:51:23.794Z,16860.00
2018-09-19T10:52:23.807Z,16840.00
2018-09-19T10:53:23.826Z,16940.00
2018-09-19T10:54:23.890Z,16936.00
2018-09-19T10:55:23.852Z,17024.00
2018-09-19T10:56:23.870Z,17276.00
2018-09-19T10:57:23.883Z,17228.00
2018-09-19T10:58:23.898Z,17080.00
2018-09-19T10:59:23.937Z,17120.00
2018-09-19T11:00:23.955Z,17020.00
2018-09-19T11:01:23.938Z,16812.00
2018-09-19T11:02:23.954Z,16960.00
2018-09-19T11:03:23.965Z,17300.00
2018-09-19T11:04:23.981Z,17332.00
2018-09-19T11:05:23.998Z,17428.00
2018-09-19T11:06:24.015Z,17440.00
2018-09-19T11:07:24.024Z,17376.00
2018-09-19T11:08:24.043Z,17364.00
2018-09-19T11:09:24.064Z,17396.00
2018-09-19T11:10:24.070Z,17336.00
2018-09-19T11:11:24.085Z,17344.00
2018-09-19T11:12:24.097Z,17424.00
2018-09-19T11:13:24.107Z,17348.00
2018-09-19T11:14:24.128Z,17344.00
2018-09-19T11:15:24.145Z,17396.00
2018-09-19T11:16:24.156Z,17288.00
2018-09-19T11:17:24.208Z,17176.00
2018-09-19T11:18:24.180Z,17012.00
2018-09-19T11:19:24.203Z,16948.00
2018-09-19T11:20:24.215Z,16968.00
2018-09-19T11:21:24.228Z,16768.00
2018-09-19T11:22:24.241Z,16760.00
2018-09-19T11:23:24.256Z,16864.00
2018-09-19T11:24:24.271Z,16860.00
2018-09-19T11:25:24.286Z,16788.00
2018-09-19T11:26:24.302Z,16716.00
2018-09-19T11:27:24.313Z,16616.00
2018-09-19T11:28:24.331Z,16572.00
2018-09-19T11:29:24.340Z,16520.00
2018-09-19T11:30:24.355Z,16544.00
2018-09-19T11:31:24.370Z,16620.00
2018-09-19T11:32:24.383Z,16636.00
2018-09-19T11:33:24.392Z,16672.00
2018-09-19T11:34:24.401Z,16560.00
2018-09-19T11:35:24.420Z,16496.00
2018-09-19T11:36:24.436Z,16448.00
2018-09-19T11:37:24.448Z,16376.00
2018-09-19T11:38:24.468Z,16288.00
2018-09-19T11:39:24.476Z,16176.00
2018-09-19T11:40:24.495Z,16124.00
2018-09-19T11:41:24.504Z,16216.00
2018-09-19T11:42:24.519Z,16276.00
2018-09-19T11:43:24.536Z,16144.00
2018-09-19T11:44:24.547Z,16188.00
2018-09-19T11:45:24.569Z,16328.00
2018-09-19T11:46:24.575Z,16428.00
2018-09-19T11:47:24.588Z,16452.00
2018-09-19T11:48:24.667Z,16444.00
2018-09-19T11:49:24.763Z,16324.00
2018-09-19T11:50:24.627Z,16364.00
2018-09-19T11:51:24.644Z,16312.00
2018-09-19T11:52:24.660Z,16124.00
2018-09-19T11:53:24.672Z,16100.00
2018-09-19T11:54:24.683Z,16196.00
2018-09-19T11:55:24.696Z,16168.00
2018-09-19T11:56:24.710Z,16276.00
2018-09-19T11:57:24.723Z,16464.00
2018-09-19T11:58:24.739Z,16652.00
2018-09-19T11:59:24.767Z,16608.00
2018-09-19T12:00:24.769Z,16472.00
2018-09-19T12:01:24.780Z,16276.00
2018-09-19T12:02:24.823Z,16220.00
2018-09-19T12:03:24.813Z,16052.00
2018-09-19T12:04:24.821Z,16156.00
2018-09-19T12:05:24.834Z,16308.00
2018-09-19T12:06:24.848Z,16428.00
2018-09-19T12:07:24.905Z,16144.00
2018-09-19T12:08:24.881Z,15664.00
2018-09-19T12:09:24.889Z,14992.00
2018-09-19T12:10:24.898Z,13708.00
2018-09-19T12:11:24.911Z,10760.00
2018-09-19T12:12:24.927Z,8568.00
2018-09-19T12:13:24.939Z,7964.00
2018-09-19T12:14:24.957Z,7416.00
2018-09-19T12:15:24.964Z,7196.00
2018-09-19T12:16:24.973Z,7136.00
2018-09-19T12:17:25.071Z,7112.00
2018-09-19T12:18:24.997Z,7088.00
2018-09-19T12:19:25.024Z,7060.00
2018-09-19T12:20:25.014Z,7032.00
2018-09-19T12:21:25.032Z,7008.00
2018-09-19T12:22:25.032Z,6996.00
2018-09-19T12:23:25.041Z,6976.00
2018-09-19T12:24:25.051Z,6956.00
2018-09-19T12:25:25.055Z,6940.00
2018-09-19T12:26:25.100Z,6916.00
2018-09-19T12:27:25.072Z,6888.00
2018-09-19T12:28:25.079Z,6856.00
2018-09-19T12:29:25.084Z,6820.00
2018-09-19T12:30:25.094Z,6784.00
2018-09-19T12:31:25.099Z,6756.00
2018-09-19T12:32:25.109Z,6724.00
2018-09-19T12:33:25.164Z,6700.00
2018-09-19T12:34:25.168Z,6680.00
2018-09-19T12:35:25.121Z,6664.00
2018-09-19T12:36:25.131Z,6664.00
2018-09-19T12:37:25.137Z,6668.00
2018-09-19T12:38:25.136Z,6676.00
2018-09-19T12:39:25.173Z,6692.00
2018-09-19T12:40:25.153Z,6716.00
2018-09-19T12:41:25.154Z,6732.00
2018-09-19T12:42:25.165Z,6756.00
2018-09-19T12:43:25.164Z,6772.00
2018-09-19T12:44:25.169Z,6780.00
2018-09-19T12:45:25.177Z,6784.00
2018-09-19T12:46:25.186Z,6788.00
2018-09-19T12:47:25.183Z,6780.00
2018-09-19T12:48:25.191Z,6796.00
2018-09-19T12:49:25.197Z,6824.00
2018-09-19T12:50:25.196Z,6844.00
2018-09-19T12:51:25.199Z,6868.00
2018-09-19T12:52:25.219Z,6892.00
2018-09-19T12:53:25.386Z,6904.00
2018-09-19T12:54:25.212Z,6908.00
2018-09-19T12:55:25.219Z,6928.00
2018-09-19T12:56:25.221Z,6956.00